Time;durP1;ratioP1;P1;durP2;ratioP2;P2;SDS_P1;SDS_P2;PMS_P1;PMS_P2;Temp;Humidity;BMP_temperature;BMP_pressure;BME280_temperature;BME280_humidity;BME280_pressure;Samples;Min_cycle;Max_cycle;Signal;HPM_P1;HPM_P2
2021/01/25 00:00:15;;;;;;;18.85;9.45;;;;;;;7.29;58.15;92792.91;4136013;28;20522;-84
2021/01/25 00:02:34;;;;;;;20.67;9.70;;;;;;;7.35;57.88;92817.38;4137082;28;20046;-82
2021/01/25 00:04:35;;;;;;;17.50;9.80;;;;;;;7.38;58.10;92820.44;4134259;28;20081;-83
2021/01/25 00:06:36;;;;;;;19.10;10.00;;;;;;;7.45;58.03;92819.69;4133635;28;20073;-84
2021/01/25 00:08:38;;;;;;;19.13;10.30;;;;;;;7.39;57.75;92809.00;4133715;28;20058;-84
2021/01/25 00:10:39;;;;;;;16.63;9.73;;;;;;;7.19;58.41;92802.81;4134682;28;20466;-82
2021/01/25 00:12:40;;;;;;;16.20;10.13;;;;;;;7.26;58.41;92798.47;4133622;28;20047;-84
2021/01/25 00:14:41;;;;;;;20.65;8.18;;;;;;;7.10;58.73;92794.31;4128592;28;20050;-82
2021/01/25 00:16:42;;;;;;;10.27;5.40;;;;;;;7.12;58.71;92776.72;4126825;28;20544;-83
2021/01/25 00:18:44;;;;;;;10.77;5.43;;;;;;;7.18;58.70;92762.13;4127700;28;20047;-84
2021/01/25 00:20:45;;;;;;;10.57;5.53;;;;;;;7.24;58.02;92752.78;4125774;28;20537;-83
2021/01/25 00:22:46;;;;;;;9.68;5.22;;;;;;;7.35;58.40;92783.53;4146402;28;20046;-84
2021/01/25 00:24:47;;;;;;;9.95;5.00;;;;;;;7.45;58.50;92793.66;4165075;28;20057;-82
2021/01/25 00:26:48;;;;;;;8.52;4.20;;;;;;;7.43;57.44;92748.75;4138605;28;20213;-84
2021/01/25 00:28:50;;;;;;;6.75;3.63;;;;;;;7.35;57.59;92729.63;4132882;28;20054;-83
2021/01/25 00:30:51;;;;;;;6.18;3.30;;;;;;;7.31;57.89;92730.19;4129651;28;20441;-83
2021/01/25 00:32:52;;;;;;;5.13;3.05;;;;;;;7.46;57.83;92758.78;4132073;28;20053;-85
2021/01/25 00:34:53;;;;;;;9.20;4.10;;;;;;;7.56;57.81;92757.44;4124349;28;20109;-70
2021/01/25 00:36:54;;;;;;;8.60;5.10;;;;;;;7.63;57.41;92764.53;4124867;28;20058;-72
2021/01/25 00:38:56;;;;;;;9.70;5.07;;;;;;;7.71;57.37;92786.03;4137382;28;20054;-71
2021/01/25 00:40:57;;;;;;;14.65;5.03;;;;;;;7.72;57.01;92781.63;4126500;28;20055;-71
2021/01/25 00:42:58;;;;;;;11.35;5.20;;;;;;;7.52;57.59;92795.31;4127500;28;20095;-71
2021/01/25 00:45:00;;;;;;;12.80;5.28;;;;;;;7.47;57.73;92812.50;4127883;28;20058;-69
2021/01/25 00:47:01;;;;;;;9.45;5.72;;;;;;;7.38;58.13;92802.19;4116608;28;20082;-70
2021/01/25 00:49:03;;;;;;;9.27;6.20;;;;;;;7.19;58.85;92789.78;4130524;28;20573;-71
2021/01/25 00:51:05;;;;;;;9.65;5.72;;;;;;;7.13;59.08;92770.50;4129689;28;20127;-71
2021/01/25 00:53:06;;;;;;;11.98;5.68;;;;;;;7.22;58.88;92780.78;4124942;28;20046;-70
2021/01/25 00:55:10;;;;;;;10.30;3.55;;;;;;;7.28;58.75;92754.81;4121827;28;20062;-69
2021/01/25 00:57:11;;;;;;;7.25;4.05;;;;;;;7.30;58.84;92771.06;4121304;28;20058;-71
2021/01/25 00:59:12;;;;;;;9.95;3.78;;;;;;;7.33;59.02;92770.69;4121435;28;20448;-71
2021/01/25 01:01:14;;;;;;;10.57;3.88;;;;;;;7.47;58.30;92779.44;4119324;28;20055;-70
2021/01/25 01:03:15;;;;;;;7.65;3.45;;;;;;;7.61;58.05;92775.13;4115032;28;20479;-70
2021/01/25 01:05:16;;;;;;;7.05;3.80;;;;;;;7.71;57.51;92765.19;4127050;28;20057;-72
2021/01/25 01:07:17;;;;;;;6.13;3.67;;;;;;;7.66;57.96;92764.13;4120742;28;20300;-71
2021/01/25 01:09:19;;;;;;;7.68;3.13;;;;;;;7.72;57.38;92766.81;4120619;28;20483;-71
2021/01/25 01:11:20;;;;;;;6.93;3.95;;;;;;;7.73;57.61;92763.19;4130284;28;20491;-71
2021/01/25 01:13:21;;;;;;;10.85;5.47;;;;;;;7.76;57.00;92756.81;4122760;28;20385;-71
2021/01/25 01:15:22;;;;;;;8.35;5.43;;;;;;;7.75;57.69;92756.00;4111374;28;20051;-71
2021/01/25 01:17:24;;;;;;;8.95;5.07;;;;;;;7.67;57.30;92737.88;4130403;28;20046;-69
2021/01/25 01:19:25;;;;;;;10.27;5.03;;;;;;;7.65;57.73;92745.09;4126681;28;20070;-72
2021/01/25 01:21:26;;;;;;;8.32;5.28;;;;;;;7.71;58.27;92759.19;4117661;28;20051;-69
2021/01/25 01:23:27;;;;;;;7.78;5.40;;;;;;;7.72;57.79;92748.56;4113783;28;20058;-70
2021/01/25 01:25:29;;;;;;;10.82;5.40;;;;;;;7.74;57.49;92766.59;4126150;28;20054;-70
2021/01/25 01:27:30;;;;;;;11.20;5.30;;;;;;;7.76;57.32;92768.03;4118650;28;20050;-70
2021/01/25 01:29:31;;;;;;;8.77;5.40;;;;;;;7.82;57.37;92763.06;4116248;28;20046;-71
2021/01/25 01:31:33;;;;;;;7.53;5.07;;;;;;;7.57;57.44;92766.06;4123855;28;20141;-70
2021/01/25 01:33:34;;;;;;;7.47;4.03;;;;;;;7.43;58.46;92764.38;4114431;28;20078;-71
2021/01/25 01:35:35;;;;;;;10.25;5.03;;;;;;;7.42;58.60;92760.13;4121867;28;20062;-71
2021/01/25 01:37:39;;;;;;;10.20;4.63;;;;;;;7.40;58.86;92760.34;4129563;28;20062;-71
2021/01/25 01:39:49;;;;;;;7.75;4.72;;;;;;;7.41;58.88;92753.31;4129814;28;20054;-72
2021/01/25 01:41:51;;;;;;;8.18;4.63;;;;;;;7.37;58.89;92743.25;4138575;28;20046;-71
2021/01/25 01:43:52;;;;;;;7.03;4.07;;;;;;;7.34;58.57;92735.84;4122887;28;20054;-71
2021/01/25 01:45:53;;;;;;;7.55;4.50;;;;;;;7.38;58.41;92742.28;4120676;28;20077;-71
2021/01/25 01:47:55;;;;;;;8.57;4.40;;;;;;;7.50;58.33;92744.38;4116653;28;20051;-70
2021/01/25 01:49:59;;;;;;;8.82;4.20;;;;;;;7.58;58.18;92745.03;4126894;28;20050;-71
2021/01/25 01:52:00;;;;;;;9.88;4.13;;;;;;;7.65;57.89;92746.91;4125460;28;20234;-70
2021/01/25 01:54:02;;;;;;;7.97;4.30;;;;;;;7.41;58.43;92746.31;4121680;28;20054;-71
2021/01/25 01:56:04;;;;;;;6.55;4.43;;;;;;;7.26;59.17;92748.97;4118399;28;20133;-70
2021/01/25 01:58:05;;;;;;;10.40;4.57;;;;;;;7.27;58.92;92750.59;4112787;28;20047;-71
2021/01/25 02:00:08;;;;;;;9.57;5.35;;;;;;;7.11;59.82;92728.22;4112957;28;20109;-71
2021/01/25 02:02:09;;;;;;;9.50;4.15;;;;;;;7.03;60.15;92714.50;4124657;28;20528;-70
2021/01/25 02:04:11;;;;;;;8.45;4.40;;;;;;;7.13;59.96;92749.66;4114209;28;20061;-70
2021/01/25 02:06:13;;;;;;;8.80;5.22;;;;;;;7.22;59.54;92750.34;4113479;28;20058;-71
2021/01/25 02:08:14;;;;;;;8.75;4.53;;;;;;;7.27;59.54;92739.38;4113821;28;20046;-71
2021/01/25 02:10:17;;;;;;;8.52;4.63;;;;;;;7.29;59.74;92768.63;4127188;28;20466;-70
2021/01/25 02:12:19;;;;;;;6.28;3.47;;;;;;;7.20;59.89;92767.16;4125545;28;20059;-71
2021/01/25 02:14:21;;;;;;;6.13;3.72;;;;;;;7.18;60.77;92741.28;4122625;28;20046;-71
2021/01/25 02:16:22;;;;;;;4.85;2.60;;;;;;;7.64;62.17;92714.81;4122392;28;20117;-70
2021/01/25 02:18:23;;;;;;;7.00;2.13;;;;;;;7.80;61.01;92760.63;4117216;28;20043;-71
2021/01/25 02:20:34;;;;;;;3.80;2.30;;;;;;;7.90;61.72;92727.22;4112562;28;20078;-71
2021/01/25 02:22:38;;;;;;;4.63;2.60;;;;;;;7.96;61.61;92736.09;4121027;28;20580;-70
2021/01/25 02:24:44;;;;;;;7.65;3.20;;;;;;;8.05;59.52;92734.16;4122953;28;20053;-71
2021/01/25 02:27:08;;;;;;;4.68;3.10;;;;;;;7.94;59.42;92741.50;4112851;28;20130;-71
2021/01/25 02:29:10;;;;;;;5.57;3.10;;;;;;;7.60;61.10;92739.66;4128810;28;20093;-71
2021/01/25 02:31:45;;;;;;;7.35;3.65;;;;;;;7.69;61.63;92722.88;4138574;28;20050;-71
2021/01/25 02:33:49;;;;;;;7.25;2.95;;;;;;;7.75;61.20;92742.97;4122799;28;20093;-70
2021/01/25 02:35:50;;;;;;;;;;;;;;;7.74;62.08;92741.38;4128590;28;20603;-70
2021/01/25 02:37:55;;;;;;;5.10;3.25;;;;;;;7.62;63.52;92749.91;4113035;28;19937;-85
2021/01/25 02:39:57;;;;;;;5.95;2.67;;;;;;;7.71;63.17;92746.16;4127532;28;20050;-84
2021/01/25 02:42:00;;;;;;;4.70;2.85;;;;;;;7.78;62.73;92750.41;4128339;28;20051;-85
2021/01/25 02:44:03;;;;;;;4.75;2.30;;;;;;;7.82;61.98;92755.25;4112026;28;20058;-83
2021/01/25 02:46:05;;;;;;;4.63;2.63;;;;;;;7.87;62.49;92752.88;4120425;28;20518;-83
2021/01/25 02:48:08;;;;;;;4.60;2.38;;;;;;;7.96;62.72;92754.34;4113217;28;20050;-83
2021/01/25 02:50:09;;;;;;;2.72;1.45;;;;;;;8.03;64.80;92762.22;4126875;28;20054;-83
2021/01/25 02:52:12;;;;;;;2.15;1.20;;;;;;;8.17;64.83;92743.03;4132199;28;20053;-83
2021/01/25 02:54:13;;;;;;;3.38;1.10;;;;;;;8.19;65.00;92754.91;4115090;28;20133;-84
2021/01/25 02:56:14;;;;;;;1.73;1.10;;;;;;;8.31;64.16;92762.97;4128952;28;20062;-83
2021/01/25 02:58:16;;;;;;;4.07;1.60;;;;;;;8.37;63.76;92762.22;4119534;28;20472;-82
2021/01/25 03:00:17;;;;;;;3.83;1.25;;;;;;;8.41;64.16;92757.44;4126669;28;20586;-84
2021/01/25 03:02:19;;;;;;;4.38;1.80;;;;;;;8.35;65.13;92738.13;4133497;28;20113;-81
2021/01/25 03:04:21;;;;;;;3.60;2.38;;;;;;;8.31;64.36;92775.22;4137422;28;20097;-84
2021/01/25 03:06:22;;;;;;;3.38;2.00;;;;;;;8.09;65.93;92780.50;4130227;28;20054;-82
2021/01/25 03:08:26;;;;;;;3.25;1.80;;;;;;;7.99;67.22;92777.44;4131036;28;20137;-83
2021/01/25 03:10:27;;;;;;;2.45;1.35;;;;;;;8.07;67.98;92753.81;4118786;28;20139;-84
2021/01/25 03:12:29;;;;;;;2.15;0.93;;;;;;;8.18;67.18;92765.50;4138799;28;20093;-84
2021/01/25 03:14:30;;;;;;;1.67;0.90;;;;;;;8.30;67.41;92763.16;4129568;28;20495;-83
2021/01/25 03:16:32;;;;;;;2.75;1.20;;;;;;;8.34;68.58;92772.22;4128744;28;20069;-83
2021/01/25 03:18:33;;;;;;;1.48;0.93;;;;;;;8.31;67.97;92768.19;4129651;28;20385;-83
2021/01/25 03:20:34;;;;;;;1.95;1.00;;;;;;;8.18;69.83;92753.28;4130988;28;20049;-83
2021/01/25 03:22:36;;;;;;;1.17;0.70;;;;;;;8.16;69.77;92768.31;4130444;28;20053;-83
2021/01/25 03:24:37;;;;;;;1.70;0.80;;;;;;;8.26;69.37;92767.16;4137981;28;20054;-82
2021/01/25 03:26:38;;;;;;;1.55;0.70;;;;;;;8.09;70.81;92764.84;4124475;28;20051;-83
2021/01/25 03:28:39;;;;;;;2.38;0.98;;;;;;;8.05;70.91;92762.84;4127634;28;20046;-83
2021/01/25 03:30:41;;;;;;;3.15;1.33;;;;;;;7.88;69.03;92752.69;4112199;28;20098;-83
2021/01/25 03:32:43;;;;;;;2.20;0.98;;;;;;;8.04;68.70;92735.13;4129433;28;20057;-86
2021/01/25 03:34:44;;;;;;;0.70;0.60;;;;;;;8.04;68.42;92748.97;4130864;28;20092;-84
2021/01/25 03:36:45;;;;;;;1.52;0.90;;;;;;;7.96;69.47;92749.94;4129334;28;20060;-83
2021/01/25 03:38:46;;;;;;;2.70;1.30;;;;;;;7.85;70.52;92767.88;4130468;28;20101;-83
2021/01/25 03:40:48;;;;;;;1.02;0.77;;;;;;;7.92;68.44;92751.31;4130013;28;20475;-82
2021/01/25 03:42:49;;;;;;;1.08;0.68;;;;;;;8.00;67.31;92766.81;4133613;28;20097;-83
2021/01/25 03:44:50;;;;;;;1.92;0.80;;;;;;;8.00;67.60;92745.13;4135245;28;20077;-83
2021/01/25 03:46:52;;;;;;;0.60;0.40;;;;;;;8.06;66.78;92733.13;4130986;28;20435;-84
2021/01/25 03:48:53;;;;;;;0.75;0.60;;;;;;;8.16;67.19;92738.81;4132246;28;20061;-83
2021/01/25 03:50:54;;;;;;;0.82;0.52;;;;;;;8.26;64.89;92733.22;4136110;28;20490;-83
2021/01/25 03:53:00;;;;;;;1.52;0.40;;;;;;;8.32;64.52;92735.06;4132911;28;20050;-83
2021/01/25 03:55:01;;;;;;;1.00;0.40;;;;;;;8.35;63.82;92721.66;4116817;28;20091;-83
2021/01/25 03:57:04;;;;;;;0.60;0.50;;;;;;;8.38;63.79;92742.13;4130764;28;20058;-83
2021/01/25 03:59:05;;;;;;;2.92;0.45;;;;;;;8.34;64.17;92738.28;4135403;28;20554;-84
2021/01/25 04:01:06;;;;;;;0.60;0.50;;;;;;;8.44;64.31;92745.81;4131919;28;20061;-83
2021/01/25 04:03:07;;;;;;;0.40;0.40;;;;;;;8.47;63.33;92729.75;4134133;28;20042;-84
2021/01/25 04:05:09;;;;;;;0.40;0.40;;;;;;;8.48;63.60;92740.00;4132840;28;20053;-71
2021/01/25 04:07:13;;;;;;;4.28;0.40;;;;;;;8.45;63.64;92745.59;4127108;28;20054;-70
2021/01/25 04:09:14;;;;;;;0.20;0.20;;;;;;;8.49;62.59;92738.19;4131482;28;20046;-71
2021/01/25 04:11:16;;;;;;;2.72;0.20;;;;;;;8.50;62.08;92734.59;4134855;28;20058;-70
2021/01/25 04:13:17;;;;;;;0.77;0.30;;;;;;;8.55;62.69;92734.81;4129981;28;20101;-73
2021/01/25 04:15:18;;;;;;;3.72;0.50;;;;;;;8.53;62.80;92740.22;4129829;28;20464;-71
2021/01/25 04:17:19;;;;;;;1.10;0.50;;;;;;;8.57;63.61;92720.56;4128834;28;20422;-70
2021/01/25 04:19:24;;;;;;;0.70;0.50;;;;;;;8.55;63.20;92716.53;4127115;28;20053;-70
2021/01/25 04:21:26;;;;;;;0.60;0.25;;;;;;;8.53;62.35;92714.13;4118432;28;20423;-70
2021/01/25 04:23:27;;;;;;;0.45;0.30;;;;;;;8.56;62.78;92703.31;4132227;28;20069;-70
2021/01/25 04:25:28;;;;;;;0.40;0.30;;;;;;;8.57;61.95;92702.28;4130299;28;20065;-70
2021/01/25 04:27:29;;;;;;;0.10;0.10;;;;;;;8.55;61.75;92682.63;4121082;28;20054;-70
2021/01/25 04:29:30;;;;;;;0.52;0.30;;;;;;;8.58;62.02;92692.66;4127108;28;20092;-70
2021/01/25 04:31:32;;;;;;;0.17;0.17;;;;;;;8.61;60.93;92698.31;4112706;28;20057;-69
2021/01/25 04:33:33;;;;;;;0.30;0.20;;;;;;;8.59;61.15;92697.69;4115572;28;20042;-71
2021/01/25 04:35:39;;;;;;;0.30;0.20;;;;;;;8.68;60.23;92705.34;4121376;28;20270;-70
2021/01/25 04:37:41;;;;;;;0.90;0.25;;;;;;;8.75;60.38;92716.59;4122576;28;20046;-71
2021/01/25 04:39:42;;;;;;;0.63;0.40;;;;;;;8.81;59.16;92702.78;4122995;28;20054;-70
2021/01/25 04:41:44;;;;;;;0.77;0.40;;;;;;;8.78;60.31;92716.22;4130598;28;20043;-71
2021/01/25 04:43:46;;;;;;;0.63;0.40;;;;;;;8.78;59.98;92705.78;4129900;28;20046;-71
2021/01/25 04:45:47;;;;;;;0.73;0.40;;;;;;;8.77;59.13;92706.78;4112780;28;20413;-71
2021/01/25 04:47:50;;;;;;;1.55;0.30;;;;;;;8.82;59.33;92725.28;4113584;28;20046;-69
2021/01/25 04:49:52;;;;;;;0.80;0.50;;;;;;;8.83;59.44;92732.09;4129845;28;20058;-70
2021/01/25 04:51:54;;;;;;;0.45;0.25;;;;;;;8.82;59.81;92740.94;4129854;28;20129;-71
2021/01/25 04:53:55;;;;;;;0.35;0.30;;;;;;;8.73;59.64;92729.06;4128973;28;20061;-71
2021/01/25 04:55:57;;;;;;;1.90;0.43;;;;;;;8.68;59.45;92736.66;4128273;28;20054;-70
2021/01/25 04:57:59;;;;;;;0.52;0.32;;;;;;;8.72;59.31;92736.09;4123155;28;20459;-82
2021/01/25 05:00:02;;;;;;;1.05;0.40;;;;;;;8.75;59.11;92751.34;4132183;28;20056;-84
2021/01/25 05:02:04;;;;;;;0.50;0.30;;;;;;;8.67;58.92;92746.31;4132266;28;20090;-84
2021/01/25 05:04:06;;;;;;;0.80;0.50;;;;;;;8.74;59.49;92743.72;4129303;28;20199;-85
2021/01/25 05:06:07;;;;;;;0.82;0.50;;;;;;;8.79;59.14;92760.41;4122965;28;20066;-85
2021/01/25 05:08:08;;;;;;;0.70;0.40;;;;;;;8.72;60.18;92777.06;4121464;28;20553;-86
2021/01/25 05:10:10;;;;;;;0.85;0.45;;;;;;;8.78;59.50;92779.69;4135344;28;20050;-84
2021/01/25 05:12:12;;;;;;;0.77;0.50;;;;;;;8.80;59.40;92769.06;4135334;28;20054;-86
2021/01/25 05:14:13;;;;;;;0.68;0.47;;;;;;;8.82;60.17;92769.66;4126300;28;20051;-85
2021/01/25 05:16:21;;;;;;;0.30;0.30;;;;;;;8.78;58.69;92764.03;4132662;28;20058;-83
2021/01/25 05:18:23;;;;;;;0.70;0.40;;;;;;;8.79;58.81;92755.19;4135927;28;20062;-82
2021/01/25 05:20:27;;;;;;;0.25;0.25;;;;;;;8.80;59.31;92756.00;4132795;28;20076;-84
2021/01/25 05:22:32;;;;;;;0.38;0.30;;;;;;;8.78;59.86;92766.63;4132411;28;20496;-83
2021/01/25 05:24:42;;;;;;;0.32;0.28;;;;;;;8.84;58.83;92772.88;4134334;28;20054;-84
2021/01/25 05:26:51;;;;;;;0.65;0.38;;;;;;;8.94;58.23;92790.78;4122057;28;20054;-85
2021/01/25 05:28:52;;;;;;;1.00;0.63;;;;;;;8.90;58.37;92792.97;4125734;28;20058;-84
2021/01/25 05:30:54;;;;;;;1.52;0.77;;;;;;;8.93;57.94;92818.72;4127095;28;20054;-85
2021/01/25 05:32:57;;;;;;;1.17;0.70;;;;;;;8.92;58.50;92832.75;4116271;28;20050;-85
2021/01/25 05:35:03;;;;;;;1.27;0.57;;;;;;;8.95;57.58;92823.75;4132833;28;20129;-86
2021/01/25 05:37:05;;;;;;;1.25;0.70;;;;;;;8.94;58.13;92817.69;4134184;28;20061;-85
2021/01/25 05:39:06;;;;;;;1.02;0.60;;;;;;;8.97;58.41;92830.38;4134678;28;20097;-72
2021/01/25 05:41:08;;;;;;;0.90;0.60;;;;;;;8.95;58.33;92813.31;4128231;28;20046;-72
2021/01/25 05:43:13;;;;;;;1.02;0.80;;;;;;;8.99;58.78;92828.38;4104951;28;20432;-72
2021/01/25 05:45:14;;;;;;;1.25;0.60;;;;;;;8.98;58.77;92824.16;4123210;28;20054;-72
2021/01/25 05:47:16;;;;;;;1.00;0.68;;;;;;;8.94;58.89;92829.97;4129384;28;20479;-71
2021/01/25 05:49:26;;;;;;;1.02;0.60;;;;;;;8.94;58.95;92827.34;4127925;28;20066;-72
2021/01/25 05:51:31;;;;;;;0.77;0.50;;;;;;;8.93;58.48;92829.16;4135593;28;20073;-72
2021/01/25 05:53:37;;;;;;;1.25;0.73;;;;;;;8.91;59.06;92832.97;4119002;28;20054;-71
2021/01/25 05:55:39;;;;;;;1.10;0.80;;;;;;;8.85;59.02;92829.31;4115220;28;20058;-70
2021/01/25 05:57:41;;;;;;;0.93;0.57;;;;;;;8.87;59.02;92834.34;4116323;28;20393;-86
2021/01/25 05:59:42;;;;;;;1.13;0.73;;;;;;;8.82;58.71;92838.34;4102377;28;20126;-84
2021/01/25 06:01:43;;;;;;;1.00;0.60;;;;;;;8.90;58.65;92839.97;4133117;28;20384;-86
2021/01/25 06:03:45;;;;;;;1.10;0.68;;;;;;;8.94;59.34;92848.25;4131057;28;20039;-86
2021/01/25 06:05:51;;;;;;;0.30;0.30;;;;;;;8.88;59.60;92856.84;4130937;28;20054;-85
2021/01/25 06:08:34;;;;;;;1.55;0.70;;;;;;;8.91;60.41;92851.25;4103562;28;20055;-86
2021/01/25 06:11:05;;;;;;;0.90;0.57;;;;;;;8.87;60.17;92853.44;4131661;28;20064;-84
2021/01/25 06:13:11;;;;;;;0.98;0.50;;;;;;;8.79;60.87;92857.00;4114221;28;20046;-85
2021/01/25 06:15:18;;;;;;;1.65;0.70;;;;;;;8.82;61.37;92861.84;4103779;28;20534;-85
2021/01/25 06:17:19;;;;;;;10.45;5.78;;;;;;;8.75;61.35;92861.00;4128747;28;20054;-86
2021/01/25 06:19:23;;;;;;;4.70;2.15;;;;;;;8.73;61.48;92855.19;4132664;28;20050;-85
2021/01/25 06:21:27;;;;;;;1.25;0.70;;;;;;;8.73;61.54;92863.00;4130751;28;20419;-85
2021/01/25 06:23:29;;;;;;;0.80;0.50;;;;;;;8.67;61.42;92873.41;4127882;28;20242;-83
2021/01/25 06:25:30;;;;;;;1.10;0.63;;;;;;;8.71;61.65;92877.22;4121895;28;20042;-86
2021/01/25 06:27:31;;;;;;;1.98;0.80;;;;;;;8.72;61.61;92894.53;4131772;28;20053;-83
2021/01/25 06:29:33;;;;;;;1.45;0.82;;;;;;;8.60;62.59;92879.41;4134489;28;20058;-84
2021/01/25 06:31:40;;;;;;;1.20;0.80;;;;;;;8.58;62.50;92868.34;4131483;28;20057;-85
2021/01/25 06:33:41;;;;;;;1.08;0.80;;;;;;;8.58;62.51;92878.78;4120232;28;20046;-86
2021/01/25 06:35:46;;;;;;;1.92;0.85;;;;;;;8.60;62.75;92884.63;4130839;28;20043;-87
2021/01/25 06:37:52;;;;;;;0.95;0.60;;;;;;;8.63;61.71;92877.41;4135026;28;20455;-83
2021/01/25 06:39:58;;;;;;;1.83;0.80;;;;;;;8.70;61.68;92883.47;4128560;28;20054;-85
2021/01/25 06:42:04;;;;;;;1.17;0.70;;;;;;;8.70;61.87;92906.97;4140788;28;20239;-85
2021/01/25 06:44:06;;;;;;;1.83;0.80;;;;;;;8.57;61.70;92892.81;4132949;28;20060;-84
2021/01/25 06:46:08;;;;;;;1.02;0.80;;;;;;;8.55;63.00;92889.59;4134168;28;20537;-83
2021/01/25 06:48:11;;;;;;;2.03;0.88;;;;;;;8.58;63.40;92901.44;4116130;28;20046;-86
2021/01/25 06:50:13;;;;;;;1.40;0.82;;;;;;;8.61;62.82;92881.00;4142942;28;20053;-85
2021/01/25 06:52:14;;;;;;;1.95;1.08;;;;;;;8.64;62.27;92894.66;4139772;28;20054;-87
2021/01/25 06:54:15;;;;;;;1.67;0.98;;;;;;;8.67;62.94;92896.88;4133420;28;20074;-84
2021/01/25 06:56:16;;;;;;;2.70;1.05;;;;;;;8.60;62.37;92913.34;4137628;28;20068;-86
2021/01/25 06:58:18;;;;;;;1.75;0.90;;;;;;;8.59;62.67;92897.84;4137154;28;20053;-87
2021/01/25 07:00:19;;;;;;;1.00;0.75;;;;;;;8.58;62.65;92884.00;4134529;28;20042;-85
2021/01/25 07:02:25;;;;;;;0.98;0.65;;;;;;;8.67;62.21;92902.09;4139078;28;20042;-86
2021/01/25 07:04:29;;;;;;;1.70;1.10;;;;;;;8.61;62.77;92899.28;4134780;28;20511;-85
2021/01/25 07:06:39;;;;;;;1.83;0.93;;;;;;;8.57;63.62;92912.91;4131799;28;20052;-83
2021/01/25 07:09:01;;;;;;;1.80;0.80;;;;;;;8.60;63.45;92915.94;4133450;28;20054;-87
2021/01/25 07:11:04;;;;;;;5.30;3.00;;;;;;;8.58;63.95;92904.88;4133599;28;20053;-87
2021/01/25 07:13:05;;;;;;;1.35;0.90;;;;;;;8.59;63.63;92895.25;4132985;28;20047;-84
2021/01/25 07:15:08;;;;;;;3.53;1.10;;;;;;;8.63;62.95;92927.00;4133938;28;20084;-87
2021/01/25 07:17:10;;;;;;;2.05;0.95;;;;;;;8.66;63.05;92924.00;4144552;28;20056;-84
2021/01/25 07:19:11;;;;;;;2.40;0.80;;;;;;;8.45;63.06;92919.63;4140499;28;20042;-88
2021/01/25 07:21:14;;;;;;;1.10;0.63;;;;;;;8.44;62.69;92931.09;4136983;28;20050;-85
2021/01/25 07:23:20;;;;;;;0.85;0.57;;;;;;;8.37;63.87;92939.63;4136357;28;20197;-85
2021/01/25 07:25:21;;;;;;;2.00;0.77;;;;;;;8.36;63.33;92931.97;4141553;28;20492;-84
2021/01/25 07:27:32;;;;;;;2.10;0.82;;;;;;;8.32;65.24;92935.97;4126011;28;20551;-86
2021/01/25 07:29:34;;;;;;;2.90;1.10;;;;;;;8.25;66.42;92950.75;4130364;28;20499;-86
2021/01/25 07:31:35;;;;;;;3.13;0.98;;;;;;;8.19;66.50;92967.97;4134212;28;20051;-86
2021/01/25 07:33:37;;;;;;;4.38;1.13;;;;;;;8.19;67.51;92947.09;4137315;28;20109;-84
2021/01/25 07:35:38;;;;;;;1.52;1.00;;;;;;;8.16;67.13;92937.84;4128141;28;20042;-87
2021/01/25 07:37:40;;;;;;;2.08;0.80;;;;;;;8.04;67.18;92960.19;4128218;28;20437;-87
2021/01/25 07:39:43;;;;;;;4.22;0.93;;;;;;;7.99;67.94;92973.00;4145060;28;20049;-86
2021/01/25 07:41:45;;;;;;;2.72;1.00;;;;;;;7.94;68.74;92985.78;4119453;28;20054;-86
2021/01/25 07:43:47;;;;;;;4.43;1.48;;;;;;;7.88;69.35;92999.56;4130373;28;20061;-88
2021/01/25 07:45:51;;;;;;;4.40;1.58;;;;;;;7.70;70.70;92992.94;4119559;28;20113;-87
2021/01/25 07:47:53;;;;;;;5.25;2.15;;;;;;;7.61;71.37;93012.28;4131666;28;20368;-71
2021/01/25 07:49:54;;;;;;;4.32;2.05;;;;;;;7.46;72.14;93033.13;4130663;28;20100;-72
2021/01/25 07:51:55;;;;;;;4.78;2.53;;;;;;;5.11;70.87;93057.84;4132398;28;20046;-71
2021/01/25 07:53:57;;;;;;;2.75;1.50;;;;;;;4.03;74.11;93086.56;4130334;28;20057;-72
2021/01/25 07:55:58;;;;;;;3.63;2.10;;;;;;;3.47;75.59;93091.41;4127772;28;20088;-71
2021/01/25 07:58:11;;;;;;;3.25;1.60;;;;;;;3.19;74.99;93124.44;4129877;28;20070;-72
2021/01/25 08:00:17;;;;;;;2.95;1.70;;;;;;;2.69;75.50;93130.25;4130578;28;20050;-72
2021/01/25 08:02:20;;;;;;;3.83;2.25;;;;;;;2.16;76.90;93131.09;4131122;28;20059;-71
2021/01/25 08:04:23;;;;;;;4.03;2.40;;;;;;;2.47;76.58;93175.44;4129690;28;20499;-71
2021/01/25 08:06:25;;;;;;;2.97;2.08;;;;;;;2.38;75.32;93182.31;4114147;28;20062;-72
2021/01/25 08:08:27;;;;;;;4.45;2.20;;;;;;;1.84;75.42;93184.81;4119549;28;20050;-72
2021/01/25 08:10:31;;;;;;;3.30;1.90;;;;;;;1.64;75.83;93150.53;4128402;28;20059;-72
2021/01/25 08:12:32;;;;;;;;;;;;;;;1.43;77.51;93186.06;4129310;28;20484;-71
2021/01/25 08:14:36;;;;;;;2.45;1.35;;;;;;;1.39;76.94;93226.03;4128671;28;20123;-71
2021/01/25 08:16:40;;;;;;;2.47;1.30;;;;;;;1.43;77.45;93220.44;4125365;28;20043;-72
2021/01/25 08:18:58;;;;;;;2.35;1.42;;;;;;;1.27;77.06;93224.53;4123067;28;20046;-72
2021/01/25 08:21:02;;;;;;;2.22;1.23;;;;;;;1.53;77.73;93233.31;4100607;28;20416;-71
2021/01/25 08:23:06;;;;;;;2.35;1.10;;;;;;;1.70;77.04;93241.25;4129923;28;20054;-72
2021/01/25 08:25:13;;;;;;;3.45;1.13;;;;;;;1.65;76.01;93254.59;4129526;28;20503;-71
2021/01/25 08:27:16;;;;;;;1.25;0.70;;;;;;;1.69;75.86;93258.53;4122013;28;20050;-71
2021/01/25 08:29:25;;;;;;;1.90;0.88;;;;;;;1.58;75.18;93277.59;4134173;28;20057;-70
2021/01/25 08:31:33;;;;;;;1.88;1.05;;;;;;;1.75;74.77;93288.16;4131843;28;20050;-73
2021/01/25 08:33:36;;;;;;;1.65;0.93;;;;;;;1.98;73.37;93291.19;4146906;28;20710;-73
2021/01/25 08:35:55;;;;;;;1.88;1.05;;;;;;;2.03;73.01;93282.06;4118535;28;20074;-71
2021/01/25 08:38:11;;;;;;;2.72;1.40;;;;;;;2.17;73.22;93305.78;4125067;28;20089;-72
2021/01/25 08:40:20;;;;;;;2.10;1.02;;;;;;;2.37;72.36;93315.09;4117040;28;20050;-70
2021/01/25 08:42:31;;;;;;;3.40;1.70;;;;;;;2.16;71.89;93330.00;4126662;28;20054;-71
2021/01/25 08:44:35;;;;;;;1.98;1.20;;;;;;;2.20;72.29;93303.75;4117640;28;20043;-73
2021/01/25 08:46:38;;;;;;;1.63;1.10;;;;;;;2.22;73.07;93296.66;4122487;28;20058;-72
2021/01/25 08:48:40;;;;;;;2.72;1.02;;;;;;;2.23;72.79;93306.03;4120740;28;20102;-71
2021/01/25 08:50:41;;;;;;;1.05;0.75;;;;;;;2.25;72.58;93344.66;4127258;28;20066;-72
2021/01/25 08:52:43;;;;;;;1.63;0.90;;;;;;;2.44;71.09;93320.50;4128780;28;20093;-73
2021/01/25 08:54:45;;;;;;;1.60;0.98;;;;;;;2.71;70.94;93319.69;4129564;28;20050;-72
2021/01/25 08:56:46;;;;;;;5.30;1.20;;;;;;;2.95;69.82;93326.06;4130623;28;20276;-71
2021/01/25 08:58:47;;;;;;;2.42;0.80;;;;;;;3.18;68.67;93323.84;4129313;28;20133;-73
2021/01/25 09:00:49;;;;;;;1.50;1.00;;;;;;;3.14;68.77;93338.88;4129324;28;20486;-74
2021/01/25 09:02:56;;;;;;;1.33;0.82;;;;;;;3.22;67.11;93325.16;4121335;28;20050;-72
2021/01/25 09:04:59;;;;;;;1.45;0.88;;;;;;;3.41;66.32;93356.06;4134304;28;20081;-74
2021/01/25 09:07:00;;;;;;;2.42;1.10;;;;;;;3.63;64.81;93328.91;4145015;28;20084;-71
2021/01/25 09:09:02;;;;;;;3.15;1.20;;;;;;;3.86;64.55;93334.41;4147330;28;20050;-74
2021/01/25 09:11:04;;;;;;;1.73;0.98;;;;;;;4.17;64.65;93351.28;4118542;28;20059;-70
2021/01/25 09:13:05;;;;;;;1.17;0.80;;;;;;;4.22;63.17;93367.19;4128289;28;20439;-74
2021/01/25 09:15:08;;;;;;;2.50;0.93;;;;;;;4.33;63.25;93353.97;4127326;28;20082;-72
2021/01/25 09:17:12;;;;;;;1.48;0.90;;;;;;;4.49;62.90;93350.63;4121312;28;20059;-70
2021/01/25 09:19:15;;;;;;;1.92;0.90;;;;;;;4.50;62.52;93360.06;4112353;28;20468;-73
2021/01/25 09:21:16;;;;;;;2.00;0.90;;;;;;;4.63;60.96;93363.03;4112809;28;20086;-70
2021/01/25 09:23:18;;;;;;;2.38;1.20;;;;;;;4.37;62.04;93359.66;4125272;28;20061;-88
2021/01/25 09:25:21;;;;;;;2.13;1.20;;;;;;;4.60;62.26;93370.28;4128751;28;20126;-86
2021/01/25 09:27:22;;;;;;;1.38;0.85;;;;;;;4.80;61.09;93358.72;4120212;28;20062;-85
2021/01/25 09:29:23;;;;;;;1.65;1.00;;;;;;;4.89;59.79;93367.34;4136712;28;20057;-85
2021/01/25 09:31:26;;;;;;;2.05;1.15;;;;;;;4.98;58.53;93371.56;4140807;28;20046;-84
2021/01/25 09:33:27;;;;;;;3.25;1.38;;;;;;;5.03;58.86;93364.13;4144195;28;20052;-85
2021/01/25 09:35:29;;;;;;;1.77;0.90;;;;;;;5.15;57.35;93367.25;4143057;28;20050;-84
2021/01/25 09:37:30;;;;;;;2.00;1.20;;;;;;;5.19;56.70;93358.16;4136679;28;20058;-89
2021/01/25 09:39:31;;;;;;;1.65;0.90;;;;;;;5.23;56.16;93364.66;4118546;28;20051;-86
2021/01/25 09:41:33;;;;;;;1.75;1.10;;;;;;;5.17;55.74;93374.88;4141362;28;20112;-87
2021/01/25 09:43:35;;;;;;;1.33;0.80;;;;;;;5.12;55.75;93377.97;4142539;28;20073;-85
2021/01/25 09:45:36;;;;;;;2.10;0.80;;;;;;;5.30;55.42;93367.44;4129321;28;20050;-85